DLH02P EDDM-LEBB
Flight info
| Callsign | DLH02P |
|---|---|
| Flight time | 1h 50m |
| Altitude | 35000 |
| Route | ALG2S ALG Y109 UMTEX Y100 TRA DCT LUTIX DCT BENOT DCT NEMOS DCT NINTU DCT MEBAK DCT REPSI DCT LERGA DCT MINSO DCT NARAK DCT AGN DCT DIGPO DCT ERAKI DCT PPN M601 CEGAM |
| Aircraft | A320/M-SDE3FGHIRWY/LB1 |
Departure
| Time | 2026-05-06 19:43 |
|---|---|
| Airport | Munich Airport (EDDM) |
Arrival
| Time | 2026-05-06 21:33 |
|---|---|
| Airport | Bilbao Airport (LEBB) |
| Time | Latitude | Longitude | Altitude | Speed | Heading |
|---|---|---|---|---|---|
| 2026-05-06 19:05 | 48.35601 | 11.79275 | 1486 ft | 0 kts | 263° |
| 2026-05-06 19:09 | 48.35594 | 11.79276 | 1486 ft | 0 kts | 263° |
| 2026-05-06 19:09 | 48.35643 | 11.79274 | 1477 ft | 0 kts | 263° |
| 2026-05-06 19:22 | 48.35643 | 11.79275 | 1477 ft | 0 kts | 263° |
| 2026-05-06 19:35 | 48.35646 | 11.79307 | 1472 ft | 4 kts | 263° |
| 2026-05-06 19:35 | 48.35649 | 11.79347 | 1478 ft | 4 kts | 263° |
| 2026-05-06 19:35 | 48.35652 | 11.79379 | 1481 ft | 4 kts | 246° |
| 2026-05-06 19:36 | 48.35668 | 11.79409 | 1474 ft | 4 kts | 202° |
| 2026-05-06 19:36 | 48.35692 | 11.79413 | 1478 ft | 4 kts | 173° |
| 2026-05-06 19:36 | 48.35703 | 11.79411 | 1479 ft | 0 kts | 173° |
| 2026-05-06 19:39 | 48.35699 | 11.79412 | 1485 ft | 4 kts | 173° |
| 2026-05-06 19:39 | 48.35613 | 11.79426 | 1476 ft | 20 kts | 174° |
| 2026-05-06 19:39 | 48.35460 | 11.79451 | 1484 ft | 23 kts | 173° |
| 2026-05-06 19:39 | 48.35299 | 11.79479 | 1485 ft | 23 kts | 171° |
| 2026-05-06 19:40 | 48.35121 | 11.79510 | 1480 ft | 29 kts | 173° |
| 2026-05-06 19:40 | 48.34931 | 11.79544 | 1485 ft | 25 kts | 173° |
| 2026-05-06 19:40 | 48.34831 | 11.79562 | 1485 ft | 8 kts | 171° |
| 2026-05-06 19:40 | 48.34797 | 11.79620 | 1480 ft | 11 kts | 96° |
| 2026-05-06 19:41 | 48.34811 | 11.79809 | 1481 ft | 26 kts | 83° |
| 2026-05-06 19:41 | 48.34831 | 11.80076 | 1485 ft | 21 kts | 83° |
| 2026-05-06 19:41 | 48.34786 | 11.80209 | 1471 ft | 14 kts | 129° |
| 2026-05-06 19:41 | 48.34705 | 11.80248 | 1485 ft | 13 kts | 174° |
| 2026-05-06 19:42 | 48.34584 | 11.80268 | 1484 ft | 19 kts | 173° |
| 2026-05-06 19:42 | 48.34470 | 11.80236 | 1474 ft | 17 kts | 234° |
| 2026-05-06 19:42 | 48.34458 | 11.80162 | 1485 ft | 0 kts | 264° |
| 2026-05-06 19:42 | 48.34457 | 11.80154 | 1485 ft | 3 kts | 264° |
| 2026-05-06 19:43 | 48.34439 | 11.79907 | 1482 ft | 56 kts | 263° |
| 2026-05-06 19:43 | 48.34369 | 11.79013 | 1486 ft | 114 kts | 264° |
| 2026-05-06 19:43 | 48.34262 | 11.77579 | 1477 ft | 159 kts | 264° |
| 2026-05-06 19:43 | 48.34149 | 11.75907 | 2126 ft | 160 kts | 263° |
| 2026-05-06 19:44 | 48.34028 | 11.74243 | 2854 ft | 163 kts | 264° |
| 2026-05-06 19:44 | 48.33890 | 11.72464 | 3188 ft | 181 kts | 264° |
| 2026-05-06 19:44 | 48.33732 | 11.70476 | 3423 ft | 207 kts | 264° |
| 2026-05-06 19:44 | 48.33550 | 11.68233 | 4011 ft | 218 kts | 264° |
| 2026-05-06 19:45 | 48.33373 | 11.66025 | 5135 ft | 206 kts | 264° |
| 2026-05-06 19:45 | 48.33198 | 11.63868 | 5859 ft | 213 kts | 264° |
| 2026-05-06 19:45 | 48.33030 | 11.61592 | 6437 ft | 225 kts | 264° |
| 2026-05-06 19:45 | 48.32864 | 11.59172 | 6903 ft | 242 kts | 264° |
| 2026-05-06 19:46 | 48.32695 | 11.56606 | 7518 ft | 251 kts | 264° |
| 2026-05-06 19:46 | 48.32522 | 11.53994 | 8225 ft | 257 kts | 263° |
| 2026-05-06 19:46 | 48.32337 | 11.51343 | 9023 ft | 260 kts | 262° |
| 2026-05-06 19:46 | 48.32136 | 11.48645 | 9855 ft | 261 kts | 261° |
| 2026-05-06 19:47 | 48.31855 | 11.45907 | 10333 ft | 273 kts | 251° |
| 2026-05-06 19:47 | 48.31177 | 11.43117 | 10516 ft | 296 kts | 248° |
| 2026-05-06 19:47 | 48.30408 | 11.40118 | 10687 ft | 319 kts | 248° |
| 2026-05-06 19:47 | 48.29587 | 11.36917 | 10983 ft | 335 kts | 248° |
| 2026-05-06 19:48 | 48.28765 | 11.33697 | 11559 ft | 341 kts | 248° |
| 2026-05-06 19:48 | 48.27913 | 11.30350 | 12227 ft | 344 kts | 248° |
| 2026-05-06 19:48 | 48.27054 | 11.26974 | 12879 ft | 349 kts | 248° |
| 2026-05-06 19:48 | 48.26185 | 11.23554 | 13520 ft | 353 kts | 248° |
| 2026-05-06 19:49 | 48.25319 | 11.20141 | 14103 ft | 357 kts | 247° |
| 2026-05-06 19:49 | 48.24429 | 11.16641 | 14651 ft | 361 kts | 247° |
| 2026-05-06 19:49 | 48.23525 | 11.13102 | 15177 ft | 365 kts | 247° |
| 2026-05-06 19:49 | 48.22610 | 11.09533 | 15678 ft | 370 kts | 247° |
| 2026-05-06 19:50 | 48.21680 | 11.05908 | 16199 ft | 374 kts | 246° |
| 2026-05-06 19:50 | 48.20745 | 11.02257 | 16708 ft | 378 kts | 246° |
| 2026-05-06 19:50 | 48.19799 | 10.98566 | 17200 ft | 382 kts | 246° |
| 2026-05-06 19:50 | 48.18840 | 10.94837 | 17716 ft | 386 kts | 246° |
| 2026-05-06 19:51 | 48.18160 | 10.92199 | 18059 ft | 388 kts | 246° |
| 2026-05-06 19:51 | 48.16903 | 10.87318 | 18645 ft | 392 kts | 246° |
| 2026-05-06 19:51 | 48.15917 | 10.83497 | 19108 ft | 395 kts | 246° |
| 2026-05-06 19:51 | 48.14922 | 10.79656 | 19570 ft | 397 kts | 246° |
| 2026-05-06 19:52 | 48.13921 | 10.75806 | 20044 ft | 398 kts | 246° |
| 2026-05-06 19:52 | 48.12911 | 10.71928 | 20509 ft | 400 kts | 246° |
| 2026-05-06 19:52 | 48.12082 | 10.68750 | 20880 ft | 402 kts | 246° |
| 2026-05-06 19:52 | 48.11406 | 10.66161 | 21177 ft | 403 kts | 246° |
| 2026-05-06 19:53 | 48.10385 | 10.62238 | 21647 ft | 405 kts | 246° |
| 2026-05-06 19:53 | 48.09364 | 10.58310 | 22078 ft | 407 kts | 246° |
| 2026-05-06 19:53 | 48.08331 | 10.54352 | 22525 ft | 409 kts | 246° |
| 2026-05-06 19:53 | 48.07291 | 10.50384 | 22941 ft | 411 kts | 245° |
| 2026-05-06 19:54 | 48.05903 | 10.45106 | 23501 ft | 413 kts | 245° |
| 2026-05-06 19:54 | 48.05190 | 10.42407 | 23730 ft | 414 kts | 245° |
| 2026-05-06 19:54 | 48.04131 | 10.38398 | 24097 ft | 415 kts | 245° |
| 2026-05-06 19:54 | 48.03069 | 10.34374 | 24469 ft | 416 kts | 245° |
| 2026-05-06 19:55 | 48.02025 | 10.30419 | 24836 ft | 417 kts | 245° |
| 2026-05-06 19:55 | 48.00971 | 10.26425 | 25198 ft | 418 kts | 245° |
| 2026-05-06 19:55 | 47.99906 | 10.22394 | 25554 ft | 418 kts | 245° |
| 2026-05-06 19:55 | 47.98833 | 10.18348 | 25899 ft | 419 kts | 245° |
| 2026-05-06 19:56 | 47.97755 | 10.14309 | 26238 ft | 420 kts | 245° |
| 2026-05-06 19:56 | 47.96670 | 10.10264 | 26570 ft | 420 kts | 245° |
| 2026-05-06 19:56 | 47.95591 | 10.06256 | 26903 ft | 421 kts | 245° |
| 2026-05-06 19:56 | 47.94502 | 10.02213 | 27221 ft | 421 kts | 245° |
| 2026-05-06 19:57 | 47.93409 | 9.98153 | 27538 ft | 422 kts | 245° |
| 2026-05-06 19:57 | 47.92372 | 9.94298 | 27846 ft | 422 kts | 245° |
| 2026-05-06 19:57 | 47.91282 | 9.90242 | 28276 ft | 420 kts | 244° |
| 2026-05-06 19:57 | 47.90198 | 9.86211 | 28741 ft | 417 kts | 244° |
| 2026-05-06 19:58 | 47.89121 | 9.82210 | 29196 ft | 415 kts | 244° |
| 2026-05-06 19:58 | 47.88051 | 9.78240 | 29664 ft | 412 kts | 244° |
| 2026-05-06 19:58 | 47.87004 | 9.74376 | 30099 ft | 410 kts | 244° |
| 2026-05-06 19:58 | 47.85937 | 9.70453 | 30463 ft | 408 kts | 244° |
| 2026-05-06 19:59 | 47.84873 | 9.66541 | 30753 ft | 408 kts | 244° |
| 2026-05-06 19:59 | 47.83891 | 9.62646 | 31022 ft | 411 kts | 249° |
| 2026-05-06 19:59 | 47.83267 | 9.58450 | 31289 ft | 415 kts | 255° |
| 2026-05-06 19:59 | 47.82775 | 9.54273 | 31553 ft | 416 kts | 255° |
| 2026-05-06 20:00 | 47.82273 | 9.50039 | 31833 ft | 417 kts | 255° |
| 2026-05-06 20:00 | 47.81765 | 9.45786 | 32098 ft | 417 kts | 255° |
| 2026-05-06 20:00 | 47.81259 | 9.41577 | 32370 ft | 417 kts | 256° |
| 2026-05-06 20:00 | 47.80760 | 9.37466 | 32649 ft | 417 kts | 256° |
| 2026-05-06 20:01 | 47.80240 | 9.33209 | 32925 ft | 418 kts | 256° |
| 2026-05-06 20:01 | 47.79717 | 9.28937 | 33190 ft | 419 kts | 256° |
| 2026-05-06 20:01 | 47.79203 | 9.24762 | 33450 ft | 419 kts | 256° |
| 2026-05-06 20:01 | 47.78695 | 9.20623 | 33721 ft | 420 kts | 256° |
| 2026-05-06 20:02 | 47.78201 | 9.16615 | 33970 ft | 420 kts | 256° |
| 2026-05-06 20:02 | 47.77674 | 9.12364 | 34199 ft | 420 kts | 256° |
| 2026-05-06 20:02 | 47.77146 | 9.08117 | 34414 ft | 421 kts | 256° |
| 2026-05-06 20:02 | 47.76612 | 9.03833 | 34609 ft | 422 kts | 256° |
| 2026-05-06 20:03 | 47.76085 | 8.99606 | 34815 ft | 423 kts | 256° |
| 2026-05-06 20:03 | 47.75547 | 8.95303 | 34910 ft | 425 kts | 256° |
| 2026-05-06 20:03 | 47.74457 | 8.86647 | 34926 ft | 428 kts | 256° |
| 2026-05-06 20:04 | 47.73364 | 8.78051 | 34927 ft | 428 kts | 256° |
| 2026-05-06 20:04 | 47.72260 | 8.69372 | 34935 ft | 428 kts | 256° |
| 2026-05-06 20:05 | 47.71175 | 8.60914 | 34937 ft | 428 kts | 256° |
| 2026-05-06 20:05 | 47.70060 | 8.52246 | 34936 ft | 429 kts | 256° |
| 2026-05-06 20:06 | 47.68612 | 8.44133 | 34940 ft | 424 kts | 244° |
| 2026-05-06 20:06 | 47.65661 | 8.36818 | 34936 ft | 421 kts | 233° |
| 2026-05-06 20:07 | 47.62286 | 8.29828 | 34931 ft | 422 kts | 233° |
| 2026-05-06 20:07 | 47.58908 | 8.22930 | 34933 ft | 422 kts | 233° |
| 2026-05-06 20:08 | 47.55487 | 8.15946 | 34929 ft | 422 kts | 233° |
| 2026-05-06 20:08 | 47.52168 | 8.09149 | 34920 ft | 423 kts | 233° |
| 2026-05-06 20:09 | 47.48916 | 8.02491 | 34925 ft | 424 kts | 233° |
| 2026-05-06 20:09 | 47.45598 | 7.95714 | 34937 ft | 424 kts | 233° |
| 2026-05-06 20:10 | 47.42204 | 7.88810 | 34931 ft | 425 kts | 233° |
| 2026-05-06 20:10 | 47.38844 | 7.81992 | 34934 ft | 425 kts | 233° |
| 2026-05-06 20:11 | 47.35413 | 7.75047 | 34934 ft | 426 kts | 233° |
| 2026-05-06 20:11 | 47.32117 | 7.68390 | 34938 ft | 426 kts | 233° |
| 2026-05-06 20:12 | 47.28834 | 7.61780 | 34940 ft | 426 kts | 233° |
| 2026-05-06 20:12 | 47.25399 | 7.54874 | 34945 ft | 427 kts | 233° |
| 2026-05-06 20:13 | 47.21888 | 7.47829 | 34946 ft | 427 kts | 232° |
| 2026-05-06 20:13 | 47.18450 | 7.40962 | 34942 ft | 427 kts | 232° |
| 2026-05-06 20:14 | 47.15068 | 7.34289 | 34947 ft | 427 kts | 231° |
| 2026-05-06 20:14 | 47.11506 | 7.27699 | 34949 ft | 428 kts | 230° |
| 2026-05-06 20:15 | 47.07777 | 7.20970 | 34944 ft | 428 kts | 230° |
| 2026-05-06 20:15 | 47.04061 | 7.14195 | 34939 ft | 428 kts | 231° |
| 2026-05-06 20:16 | 47.00445 | 7.07554 | 34934 ft | 428 kts | 231° |
| 2026-05-06 20:16 | 46.96831 | 7.00925 | 34937 ft | 429 kts | 231° |
| 2026-05-06 20:17 | 46.93143 | 6.94194 | 34939 ft | 429 kts | 230° |
| 2026-05-06 20:17 | 46.89390 | 6.87385 | 34942 ft | 430 kts | 230° |
| 2026-05-06 20:18 | 46.85695 | 6.80702 | 34936 ft | 431 kts | 230° |
| 2026-05-06 20:18 | 46.81949 | 6.73938 | 34943 ft | 431 kts | 230° |
| 2026-05-06 20:19 | 46.78209 | 6.67211 | 34939 ft | 431 kts | 230° |
| 2026-05-06 20:19 | 46.74493 | 6.60541 | 34942 ft | 431 kts | 230° |
| 2026-05-06 20:20 | 46.70741 | 6.53821 | 34937 ft | 431 kts | 230° |
| 2026-05-06 20:20 | 46.66981 | 6.47103 | 34936 ft | 432 kts | 230° |
| 2026-05-06 20:21 | 46.63275 | 6.40481 | 34936 ft | 432 kts | 230° |
| 2026-05-06 20:21 | 46.59479 | 6.33715 | 34938 ft | 432 kts | 230° |
| 2026-05-06 20:22 | 46.55700 | 6.27001 | 34943 ft | 432 kts | 230° |
| 2026-05-06 20:22 | 46.52043 | 6.20534 | 34955 ft | 433 kts | 230° |
| 2026-05-06 20:23 | 46.48272 | 6.13885 | 34961 ft | 433 kts | 230° |
| 2026-05-06 20:23 | 46.44574 | 6.07364 | 34963 ft | 433 kts | 231° |
| 2026-05-06 20:24 | 46.40774 | 6.00667 | 34965 ft | 433 kts | 231° |
| 2026-05-06 20:24 | 46.36981 | 5.94016 | 34964 ft | 433 kts | 231° |
| 2026-05-06 20:25 | 46.33139 | 5.87301 | 34971 ft | 433 kts | 231° |
| 2026-05-06 20:25 | 46.29413 | 5.80802 | 34970 ft | 433 kts | 231° |
| 2026-05-06 20:26 | 46.25655 | 5.74249 | 34966 ft | 433 kts | 231° |
| 2026-05-06 20:26 | 46.21843 | 5.67624 | 34968 ft | 433 kts | 231° |
| 2026-05-06 20:27 | 46.18051 | 5.61065 | 34973 ft | 433 kts | 231° |
| 2026-05-06 20:27 | 46.14345 | 5.54522 | 34967 ft | 432 kts | 235° |
| 2026-05-06 20:28 | 46.11005 | 5.47545 | 34961 ft | 432 kts | 236° |
| 2026-05-06 20:28 | 46.07743 | 5.40739 | 34957 ft | 432 kts | 236° |
| 2026-05-06 20:29 | 46.04384 | 5.33758 | 34956 ft | 432 kts | 236° |
| 2026-05-06 20:29 | 46.00969 | 5.26681 | 34961 ft | 432 kts | 236° |
| 2026-05-06 20:30 | 45.95841 | 5.16073 | 34967 ft | 432 kts | 236° |
| 2026-05-06 20:31 | 45.92482 | 5.09159 | 34967 ft | 432 kts | 236° |
| 2026-05-06 20:31 | 45.89038 | 5.02082 | 34969 ft | 433 kts | 235° |
| 2026-05-06 20:32 | 45.85586 | 4.95017 | 34971 ft | 433 kts | 236° |
| 2026-05-06 20:32 | 45.82193 | 4.88058 | 34966 ft | 433 kts | 236° |
| 2026-05-06 20:33 | 45.78847 | 4.81228 | 34970 ft | 433 kts | 235° |
| 2026-05-06 20:33 | 45.75651 | 4.74737 | 34971 ft | 433 kts | 235° |
| 2026-05-06 20:34 | 45.72216 | 4.67774 | 34966 ft | 433 kts | 235° |
| 2026-05-06 20:34 | 45.68825 | 4.60886 | 34969 ft | 433 kts | 236° |
| 2026-05-06 20:35 | 45.65415 | 4.53975 | 34971 ft | 433 kts | 235° |
| 2026-05-06 20:35 | 45.61924 | 4.46944 | 34966 ft | 434 kts | 235° |
| 2026-05-06 20:36 | 45.58442 | 4.39946 | 34968 ft | 434 kts | 235° |
| 2026-05-06 20:36 | 45.55084 | 4.33207 | 34978 ft | 434 kts | 235° |
| 2026-05-06 20:37 | 45.51618 | 4.26276 | 34972 ft | 434 kts | 235° |
| 2026-05-06 20:37 | 45.48117 | 4.19287 | 35004 ft | 434 kts | 235° |
| 2026-05-06 20:38 | 45.44659 | 4.12399 | 34994 ft | 434 kts | 235° |
| 2026-05-06 20:38 | 45.41361 | 4.05863 | 34992 ft | 434 kts | 235° |
| 2026-05-06 20:39 | 45.37841 | 3.98896 | 34982 ft | 434 kts | 235° |
| 2026-05-06 20:39 | 45.34389 | 3.92061 | 34980 ft | 434 kts | 235° |
| 2026-05-06 20:40 | 45.30886 | 3.85146 | 34976 ft | 434 kts | 235° |
| 2026-05-06 20:40 | 45.27342 | 3.78195 | 34973 ft | 434 kts | 235° |
| 2026-05-06 20:41 | 45.23909 | 3.71428 | 34983 ft | 434 kts | 236° |
| 2026-05-06 20:41 | 45.20439 | 3.64351 | 34974 ft | 434 kts | 236° |
| 2026-05-06 20:42 | 45.17006 | 3.57312 | 34984 ft | 434 kts | 236° |
| 2026-05-06 20:42 | 45.13579 | 3.50369 | 34985 ft | 434 kts | 236° |
| 2026-05-06 20:43 | 45.10126 | 3.43422 | 34988 ft | 434 kts | 236° |
| 2026-05-06 20:43 | 45.06685 | 3.36487 | 34987 ft | 434 kts | 237° |
| 2026-05-06 20:44 | 45.03486 | 3.29316 | 34988 ft | 434 kts | 240° |
| 2026-05-06 20:44 | 45.00574 | 3.22175 | 34987 ft | 434 kts | 241° |
| 2026-05-06 20:45 | 44.97548 | 3.14809 | 34986 ft | 434 kts | 240° |
| 2026-05-06 20:45 | 44.94498 | 3.07589 | 34988 ft | 434 kts | 240° |
| 2026-05-06 20:46 | 44.91379 | 3.00304 | 34987 ft | 435 kts | 240° |
| 2026-05-06 20:46 | 44.88294 | 2.93109 | 34988 ft | 435 kts | 240° |
| 2026-05-06 20:47 | 44.85196 | 2.85870 | 34995 ft | 435 kts | 240° |
| 2026-05-06 20:47 | 44.82074 | 2.78602 | 34995 ft | 435 kts | 240° |
| 2026-05-06 20:48 | 44.79023 | 2.71519 | 34997 ft | 435 kts | 240° |
| 2026-05-06 20:48 | 44.75896 | 2.64273 | 34999 ft | 435 kts | 240° |
| 2026-05-06 20:49 | 44.72793 | 2.57088 | 34993 ft | 436 kts | 240° |
| 2026-05-06 20:49 | 44.69728 | 2.50012 | 34993 ft | 436 kts | 240° |
| 2026-05-06 20:50 | 44.66592 | 2.42815 | 34994 ft | 436 kts | 240° |
| 2026-05-06 20:50 | 44.63493 | 2.35711 | 34995 ft | 436 kts | 240° |
| 2026-05-06 20:51 | 44.60326 | 2.28457 | 34996 ft | 435 kts | 240° |
| 2026-05-06 20:51 | 44.57259 | 2.21449 | 35000 ft | 435 kts | 240° |
| 2026-05-06 20:52 | 44.54112 | 2.14268 | 35000 ft | 435 kts | 240° |
| 2026-05-06 20:52 | 44.50973 | 2.07130 | 34997 ft | 435 kts | 240° |
| 2026-05-06 20:53 | 44.47823 | 2.00016 | 34996 ft | 435 kts | 239° |
| 2026-05-06 20:53 | 44.44621 | 1.92785 | 35005 ft | 434 kts | 240° |
| 2026-05-06 20:54 | 44.41459 | 1.85650 | 35002 ft | 434 kts | 240° |
| 2026-05-06 20:54 | 44.38283 | 1.78485 | 34999 ft | 434 kts | 240° |
| 2026-05-06 20:55 | 44.35100 | 1.71353 | 34998 ft | 433 kts | 239° |
| 2026-05-06 20:55 | 44.31916 | 1.64248 | 35002 ft | 433 kts | 239° |
| 2026-05-06 20:56 | 44.28744 | 1.57158 | 35003 ft | 433 kts | 239° |
| 2026-05-06 20:56 | 44.25546 | 1.50037 | 35000 ft | 433 kts | 239° |
| 2026-05-06 20:57 | 44.22344 | 1.42931 | 34998 ft | 433 kts | 239° |
| 2026-05-06 20:57 | 44.19144 | 1.35817 | 35000 ft | 433 kts | 239° |
| 2026-05-06 20:58 | 44.15934 | 1.28720 | 35002 ft | 433 kts | 239° |
| 2026-05-06 20:58 | 44.12732 | 1.21673 | 35000 ft | 433 kts | 239° |
| 2026-05-06 20:59 | 44.09507 | 1.14594 | 34997 ft | 433 kts | 239° |
| 2026-05-06 20:59 | 44.06294 | 1.07530 | 35000 ft | 433 kts | 239° |
| 2026-05-06 21:00 | 44.03094 | 1.00511 | 35007 ft | 433 kts | 239° |
| 2026-05-06 21:00 | 43.99878 | 0.93493 | 35015 ft | 432 kts | 239° |
| 2026-05-06 21:01 | 43.96665 | 0.86497 | 35019 ft | 432 kts | 239° |
| 2026-05-06 21:01 | 43.93406 | 0.79421 | 35019 ft | 432 kts | 239° |
| 2026-05-06 21:02 | 43.90194 | 0.72454 | 35023 ft | 431 kts | 239° |
| 2026-05-06 21:02 | 43.86963 | 0.65457 | 35021 ft | 431 kts | 239° |
| 2026-05-06 21:03 | 43.83759 | 0.58559 | 35024 ft | 431 kts | 239° |
| 2026-05-06 21:03 | 43.80622 | 0.51809 | 35024 ft | 430 kts | 239° |
| 2026-05-06 21:04 | 43.77405 | 0.44897 | 35021 ft | 430 kts | 239° |
| 2026-05-06 21:04 | 43.74166 | 0.37954 | 35027 ft | 430 kts | 239° |
| 2026-05-06 21:05 | 43.70926 | 0.31016 | 35036 ft | 429 kts | 239° |
| 2026-05-06 21:05 | 43.67677 | 0.24094 | 35039 ft | 429 kts | 239° |
| 2026-05-06 21:06 | 43.64475 | 0.17290 | 35038 ft | 429 kts | 239° |
| 2026-05-06 21:06 | 43.61235 | 0.10417 | 35038 ft | 428 kts | 239° |
| 2026-05-06 21:07 | 43.57988 | 0.03529 | 35040 ft | 428 kts | 239° |
| 2026-05-06 21:07 | 43.54735 | -0.03340 | 35047 ft | 428 kts | 238° |
| 2026-05-06 21:08 | 43.51501 | -0.10151 | 35051 ft | 427 kts | 238° |
| 2026-05-06 21:08 | 43.48246 | -0.16998 | 35055 ft | 427 kts | 238° |
| 2026-05-06 21:09 | 43.45038 | -0.23742 | 35061 ft | 427 kts | 238° |
| 2026-05-06 21:09 | 43.41775 | -0.30566 | 35066 ft | 427 kts | 238° |
| 2026-05-06 21:10 | 43.38533 | -0.37322 | 35065 ft | 426 kts | 238° |
| 2026-05-06 21:10 | 43.35267 | -0.44127 | 35067 ft | 426 kts | 238° |
| 2026-05-06 21:11 | 43.32002 | -0.50910 | 35066 ft | 426 kts | 238° |
| 2026-05-06 21:11 | 43.28736 | -0.57690 | 35062 ft | 425 kts | 238° |
| 2026-05-06 21:12 | 43.25494 | -0.64406 | 35059 ft | 425 kts | 238° |
| 2026-05-06 21:12 | 43.22227 | -0.71156 | 35056 ft | 425 kts | 238° |
| 2026-05-06 21:13 | 43.18950 | -0.77892 | 35052 ft | 425 kts | 238° |
| 2026-05-06 21:13 | 43.15687 | -0.84581 | 35050 ft | 425 kts | 238° |
| 2026-05-06 21:14 | 43.12410 | -0.91305 | 35048 ft | 425 kts | 238° |
| 2026-05-06 21:14 | 43.09124 | -0.98030 | 35009 ft | 426 kts | 238° |
| 2026-05-06 21:14 | 43.07478 | -1.01392 | 34765 ft | 425 kts | 238° |
| 2026-05-06 21:15 | 43.05834 | -1.04751 | 34521 ft | 425 kts | 238° |
| 2026-05-06 21:15 | 43.04187 | -1.08109 | 34266 ft | 425 kts | 238° |
| 2026-05-06 21:15 | 43.02534 | -1.11475 | 33357 ft | 429 kts | 238° |
| 2026-05-06 21:15 | 43.00892 | -1.14823 | 32510 ft | 430 kts | 238° |
| 2026-05-06 21:16 | 42.99220 | -1.18227 | 31595 ft | 433 kts | 237° |
| 2026-05-06 21:16 | 42.97531 | -1.21653 | 30665 ft | 437 kts | 237° |
| 2026-05-06 21:16 | 42.95825 | -1.25104 | 29632 ft | 441 kts | 237° |
| 2026-05-06 21:16 | 42.94098 | -1.28594 | 28552 ft | 444 kts | 237° |
| 2026-05-06 21:17 | 42.92362 | -1.32099 | 27463 ft | 447 kts | 237° |
| 2026-05-06 21:17 | 42.90617 | -1.35619 | 26320 ft | 451 kts | 237° |
| 2026-05-06 21:17 | 42.88852 | -1.39173 | 25450 ft | 450 kts | 237° |
| 2026-05-06 21:17 | 42.87128 | -1.42641 | 24707 ft | 446 kts | 236° |
| 2026-05-06 21:18 | 42.85392 | -1.46131 | 23936 ft | 443 kts | 236° |
| 2026-05-06 21:18 | 42.83667 | -1.49597 | 23098 ft | 441 kts | 236° |
| 2026-05-06 21:18 | 42.81951 | -1.53036 | 22369 ft | 436 kts | 236° |
| 2026-05-06 21:18 | 42.80254 | -1.56432 | 21669 ft | 432 kts | 236° |
| 2026-05-06 21:19 | 42.78572 | -1.59800 | 20978 ft | 428 kts | 236° |
| 2026-05-06 21:19 | 42.77049 | -1.63236 | 20311 ft | 423 kts | 245° |
| 2026-05-06 21:19 | 42.76121 | -1.67010 | 19662 ft | 420 kts | 258° |
| 2026-05-06 21:19 | 42.75869 | -1.70895 | 19028 ft | 417 kts | 271° |
| 2026-05-06 21:20 | 42.76271 | -1.74777 | 18359 ft | 415 kts | 284° |
| 2026-05-06 21:20 | 42.77313 | -1.78422 | 17683 ft | 413 kts | 297° |
| 2026-05-06 21:20 | 42.78818 | -1.81725 | 17077 ft | 408 kts | 302° |
| 2026-05-06 21:20 | 42.80342 | -1.84955 | 16501 ft | 403 kts | 302° |
| 2026-05-06 21:21 | 42.81842 | -1.88152 | 15934 ft | 398 kts | 301° |
| 2026-05-06 21:21 | 42.83318 | -1.91316 | 15382 ft | 394 kts | 301° |
| 2026-05-06 21:21 | 42.84778 | -1.94450 | 14833 ft | 390 kts | 301° |
| 2026-05-06 21:21 | 42.86225 | -1.97551 | 14317 ft | 385 kts | 301° |
| 2026-05-06 21:22 | 42.87639 | -2.00579 | 13777 ft | 382 kts | 302° |
| 2026-05-06 21:22 | 42.89062 | -2.03621 | 13202 ft | 379 kts | 302° |
| 2026-05-06 21:22 | 42.90471 | -2.06634 | 12613 ft | 375 kts | 302° |
| 2026-05-06 21:22 | 42.91863 | -2.09616 | 12043 ft | 371 kts | 302° |
| 2026-05-06 21:23 | 42.93242 | -2.12576 | 11431 ft | 368 kts | 302° |
| 2026-05-06 21:23 | 42.94602 | -2.15504 | 11077 ft | 359 kts | 302° |
| 2026-05-06 21:23 | 42.95908 | -2.18318 | 10947 ft | 343 kts | 302° |
| 2026-05-06 21:23 | 42.97157 | -2.21007 | 10822 ft | 329 kts | 302° |
| 2026-05-06 21:24 | 42.98384 | -2.23525 | 10704 ft | 317 kts | 307° |
| 2026-05-06 21:24 | 42.99835 | -2.25716 | 10575 ft | 305 kts | 313° |
| 2026-05-06 21:24 | 43.01284 | -2.27770 | 10451 ft | 295 kts | 313° |
| 2026-05-06 21:24 | 43.02685 | -2.29765 | 10227 ft | 288 kts | 313° |
| 2026-05-06 21:25 | 43.04052 | -2.31723 | 10163 ft | 285 kts | 313° |
| 2026-05-06 21:25 | 43.05418 | -2.33686 | 10084 ft | 285 kts | 313° |
| 2026-05-06 21:25 | 43.06783 | -2.35650 | 9910 ft | 286 kts | 313° |
| 2026-05-06 21:25 | 43.08173 | -2.37649 | 9370 ft | 290 kts | 313° |
| 2026-05-06 21:26 | 43.09551 | -2.39630 | 9025 ft | 286 kts | 313° |
| 2026-05-06 21:26 | 43.10927 | -2.41606 | 8251 ft | 297 kts | 313° |
| 2026-05-06 21:26 | 43.12371 | -2.43708 | 7472 ft | 308 kts | 310° |
| 2026-05-06 21:26 | 43.13507 | -2.46164 | 7165 ft | 301 kts | 297° |
| 2026-05-06 21:27 | 43.14364 | -2.48483 | 7032 ft | 290 kts | 297° |
| 2026-05-06 21:27 | 43.15261 | -2.50889 | 6903 ft | 278 kts | 297° |
| 2026-05-06 21:27 | 43.16126 | -2.53202 | 6737 ft | 269 kts | 297° |
| 2026-05-06 21:27 | 43.16980 | -2.55487 | 6326 ft | 270 kts | 297° |
| 2026-05-06 21:28 | 43.17819 | -2.57738 | 5949 ft | 268 kts | 297° |
| 2026-05-06 21:28 | 43.18659 | -2.59998 | 5573 ft | 265 kts | 297° |
| 2026-05-06 21:28 | 43.19491 | -2.62244 | 5215 ft | 262 kts | 297° |
| 2026-05-06 21:28 | 43.20301 | -2.64446 | 4856 ft | 251 kts | 297° |
| 2026-05-06 21:29 | 43.21052 | -2.66483 | 4480 ft | 229 kts | 298° |
| 2026-05-06 21:29 | 43.21746 | -2.68358 | 4155 ft | 212 kts | 298° |
| 2026-05-06 21:29 | 43.22388 | -2.70094 | 3876 ft | 196 kts | 298° |
| 2026-05-06 21:29 | 43.22997 | -2.71740 | 3555 ft | 192 kts | 298° |
| 2026-05-06 21:30 | 43.23588 | -2.73339 | 3272 ft | 190 kts | 298° |
| 2026-05-06 21:30 | 43.24182 | -2.74949 | 2991 ft | 189 kts | 297° |
| 2026-05-06 21:30 | 43.24771 | -2.76546 | 2692 ft | 187 kts | 297° |
| 2026-05-06 21:30 | 43.25358 | -2.78137 | 2398 ft | 183 kts | 297° |
| 2026-05-06 21:31 | 43.25904 | -2.79621 | 2151 ft | 165 kts | 297° |
| 2026-05-06 21:31 | 43.26402 | -2.80971 | 1886 ft | 152 kts | 297° |
| 2026-05-06 21:31 | 43.26868 | -2.82237 | 1646 ft | 146 kts | 297° |
| 2026-05-06 21:31 | 43.27316 | -2.83454 | 1416 ft | 144 kts | 297° |
| 2026-05-06 21:32 | 43.27764 | -2.84674 | 1190 ft | 142 kts | 297° |
| 2026-05-06 21:32 | 43.28653 | -2.87088 | 747 ft | 142 kts | 297° |
| 2026-05-06 21:32 | 43.29094 | -2.88299 | 534 ft | 142 kts | 295° |
| 2026-05-06 21:33 | 43.29529 | -2.89511 | 327 ft | 143 kts | 298° |
| 2026-05-06 21:33 | 43.29985 | -2.90707 | 133 ft | 134 kts | 296° |
| 2026-05-06 21:33 | 43.30297 | -2.91572 | 132 ft | 59 kts | 297° |
| 2026-05-06 21:33 | 43.30475 | -2.91941 | 131 ft | 37 kts | 325° |
| 2026-05-06 21:34 | 43.30611 | -2.92044 | 132 ft | 10 kts | 11° |
| 2026-05-06 21:34 | 43.30627 | -2.91966 | 132 ft | 10 kts | 109° |
| 2026-05-06 21:34 | 43.30575 | -2.91820 | 132 ft | 25 kts | 117° |
| 2026-05-06 21:34 | 43.30491 | -2.91591 | 132 ft | 27 kts | 117° |
| 2026-05-06 21:35 | 43.30405 | -2.91357 | 132 ft | 28 kts | 116° |
| 2026-05-06 21:35 | 43.30319 | -2.91122 | 132 ft | 21 kts | 117° |
| 2026-05-06 21:35 | 43.30339 | -2.91014 | 132 ft | 14 kts | 27° |
| 2026-05-06 21:35 | 43.30413 | -2.90940 | 132 ft | 13 kts | 80° |
| 2026-05-06 21:36 | 43.30412 | -2.90812 | 132 ft | 9 kts | 98° |
| 2026-05-06 21:36 | 43.30428 | -2.90764 | 132 ft | 6 kts | 17° |
| 2026-05-06 21:36 | 43.30461 | -2.90743 | 132 ft | 4 kts | 26° |
| 2026-05-06 21:36 | 43.30464 | -2.90742 | 132 ft | 0 kts | 26° |